sensor_id;sensor_type;location;lat;lon;timestamp;P1;durP1;ratioP1;P2;durP2;ratioP2
10295;SDS011;5193;51.032;6.356;2023-08-07T12:03:27;4.03;;;1.60;;
10295;SDS011;5193;51.032;6.356;2023-08-07T12:05:55;9.37;;;1.80;;
10295;SDS011;5193;51.032;6.356;2023-08-07T12:08:24;9.73;;;2.20;;
10295;SDS011;5193;51.032;6.356;2023-08-07T12:10:53;6.47;;;1.60;;
10295;SDS011;5193;51.032;6.356;2023-08-07T12:13:23;6.00;;;2.53;;
10295;SDS011;5193;51.032;6.356;2023-08-07T12:16:01;5.03;;;1.63;;
10295;SDS011;5193;51.032;6.356;2023-08-07T12:18:33;5.67;;;1.77;;
10295;SDS011;5193;51.032;6.356;2023-08-07T12:21:22;4.27;;;1.43;;
10295;SDS011;5193;51.032;6.356;2023-08-07T12:24:30;4.07;;;1.47;;
10295;SDS011;5193;51.032;6.356;2023-08-07T12:44:42;4.40;;;1.67;;
10295;SDS011;5193;51.032;6.356;2023-08-07T12:47:24;4.80;;;1.60;;
10295;SDS011;5193;51.032;6.356;2023-08-07T12:54:08;6.07;;;1.90;;
10295;SDS011;5193;51.032;6.356;2023-08-07T12:56:43;5.30;;;1.73;;
10295;SDS011;5193;51.032;6.356;2023-08-07T12:59:33;6.70;;;1.77;;
10295;SDS011;5193;51.032;6.356;2023-08-07T13:02:15;4.17;;;1.90;;
10295;SDS011;5193;51.032;6.356;2023-08-07T13:04:56;7.17;;;1.93;;
10295;SDS011;5193;51.032;6.356;2023-08-07T13:11:01;3.23;;;1.90;;
10295;SDS011;5193;51.032;6.356;2023-08-07T13:14:04;4.73;;;1.80;;
10295;SDS011;5193;51.032;6.356;2023-08-07T13:16:53;8.57;;;2.27;;
10295;SDS011;5193;51.032;6.356;2023-08-07T13:19:35;4.73;;;2.07;;
10295;SDS011;5193;51.032;6.356;2023-08-07T13:22:11;4.93;;;1.87;;
10295;SDS011;5193;51.032;6.356;2023-08-07T13:24:54;4.77;;;1.63;;
10295;SDS011;5193;51.032;6.356;2023-08-07T13:27:54;5.20;;;1.47;;
10295;SDS011;5193;51.032;6.356;2023-08-07T13:30:39;5.33;;;1.70;;
10295;SDS011;5193;51.032;6.356;2023-08-07T13:33:26;3.13;;;1.40;;
10295;SDS011;5193;51.032;6.356;2023-08-07T13:36:05;3.07;;;1.53;;
10295;SDS011;5193;51.032;6.356;2023-08-07T13:38:38;4.67;;;1.60;;
10295;SDS011;5193;51.032;6.356;2023-08-07T13:41:24;3.63;;;1.40;;
10295;SDS011;5193;51.032;6.356;2023-08-07T13:44:08;3.13;;;1.50;;
10295;SDS011;5193;51.032;6.356;2023-08-07T13:46:39;4.97;;;1.73;;
10295;SDS011;5193;51.032;6.356;2023-08-07T13:49:09;3.63;;;1.83;;
10295;SDS011;5193;51.032;6.356;2023-08-07T13:51:37;7.30;;;2.30;;
10295;SDS011;5193;51.032;6.356;2023-08-07T13:54:04;4.20;;;1.67;;
10295;SDS011;5193;51.032;6.356;2023-08-07T13:56:31;3.70;;;1.50;;
10295;SDS011;5193;51.032;6.356;2023-08-07T13:59:03;4.33;;;1.77;;
10295;SDS011;5193;51.032;6.356;2023-08-07T14:01:29;4.73;;;2.00;;
10295;SDS011;5193;51.032;6.356;2023-08-07T14:03:56;4.73;;;1.63;;
10295;SDS011;5193;51.032;6.356;2023-08-07T14:06:22;5.40;;;1.90;;
10295;SDS011;5193;51.032;6.356;2023-08-07T14:08:48;4.53;;;1.50;;
10295;SDS011;5193;51.032;6.356;2023-08-07T14:11:14;4.00;;;1.63;;
10295;SDS011;5193;51.032;6.356;2023-08-07T14:13:49;4.17;;;2.00;;
10295;SDS011;5193;51.032;6.356;2023-08-07T14:16:21;3.30;;;1.80;;
10295;SDS011;5193;51.032;6.356;2023-08-07T14:18:59;4.57;;;1.53;;
10295;SDS011;5193;51.032;6.356;2023-08-07T14:21:33;2.97;;;1.63;;
10295;SDS011;5193;51.032;6.356;2023-08-07T14:24:07;3.63;;;1.50;;
10295;SDS011;5193;51.032;6.356;2023-08-07T14:26:48;3.47;;;1.60;;
10295;SDS011;5193;51.032;6.356;2023-08-07T14:29:29;3.33;;;2.00;;
10295;SDS011;5193;51.032;6.356;2023-08-07T14:31:55;4.00;;;1.70;;
10295;SDS011;5193;51.032;6.356;2023-08-07T14:34:41;2.27;;;1.50;;
10295;SDS011;5193;51.032;6.356;2023-08-07T14:37:13;4.67;;;1.40;;
10295;SDS011;5193;51.032;6.356;2023-08-07T14:39:41;3.30;;;1.40;;
10295;SDS011;5193;51.032;6.356;2023-08-07T14:42:17;2.43;;;1.30;;
10295;SDS011;5193;51.032;6.356;2023-08-07T14:44:46;2.43;;;1.40;;
10295;SDS011;5193;51.032;6.356;2023-08-07T14:47:15;3.17;;;1.70;;
10295;SDS011;5193;51.032;6.356;2023-08-07T14:49:45;1.53;;;1.20;;
10295;SDS011;5193;51.032;6.356;2023-08-07T14:52:13;5.57;;;1.30;;
10295;SDS011;5193;51.032;6.356;2023-08-07T14:54:41;2.33;;;1.30;;
10295;SDS011;5193;51.032;6.356;2023-08-07T14:57:12;1.87;;;1.10;;
10295;SDS011;5193;51.032;6.356;2023-08-07T14:59:38;1.90;;;1.10;;
10295;SDS011;5193;51.032;6.356;2023-08-07T15:02:08;2.00;;;1.07;;
10295;SDS011;5193;51.032;6.356;2023-08-07T15:04:34;1.80;;;1.10;;
10295;SDS011;5193;51.032;6.356;2023-08-07T15:06:59;2.10;;;1.10;;
10295;SDS011;5193;51.032;6.356;2023-08-07T15:09:26;1.67;;;0.90;;
10295;SDS011;5193;51.032;6.356;2023-08-07T15:11:52;1.50;;;1.10;;
10295;SDS011;5193;51.032;6.356;2023-08-07T15:14:19;2.97;;;1.30;;
10295;SDS011;5193;51.032;6.356;2023-08-07T15:16:45;2.57;;;1.30;;
10295;SDS011;5193;51.032;6.356;2023-08-07T15:19:11;1.33;;;0.80;;
10295;SDS011;5193;51.032;6.356;2023-08-07T15:21:37;1.90;;;1.30;;
10295;SDS011;5193;51.032;6.356;2023-08-07T15:24:06;2.23;;;1.33;;
10295;SDS011;5193;51.032;6.356;2023-08-07T15:26:32;3.30;;;1.10;;
10295;SDS011;5193;51.032;6.356;2023-08-07T15:29:02;1.43;;;0.90;;
10295;SDS011;5193;51.032;6.356;2023-08-07T15:31:29;1.47;;;0.87;;
10295;SDS011;5193;51.032;6.356;2023-08-07T15:33:58;1.30;;;1.00;;
10295;SDS011;5193;51.032;6.356;2023-08-07T15:36:50;1.00;;;0.83;;
10295;SDS011;5193;51.032;6.356;2023-08-07T15:39:19;2.57;;;1.10;;
10295;SDS011;5193;51.032;6.356;2023-08-07T15:41:46;1.87;;;0.90;;
10295;SDS011;5193;51.032;6.356;2023-08-07T15:44:13;2.13;;;1.03;;
10295;SDS011;5193;51.032;6.356;2023-08-07T15:46:39;2.97;;;0.90;;
10295;SDS011;5193;51.032;6.356;2023-08-07T15:49:05;1.43;;;1.30;;
10295;SDS011;5193;51.032;6.356;2023-08-07T15:51:31;0.87;;;0.87;;
10295;SDS011;5193;51.032;6.356;2023-08-07T15:53:57;1.33;;;1.03;;
10295;SDS011;5193;51.032;6.356;2023-08-07T15:56:23;1.63;;;1.00;;
10295;SDS011;5193;51.032;6.356;2023-08-07T15:58:49;1.20;;;1.10;;
10295;SDS011;5193;51.032;6.356;2023-08-07T16:01:15;1.73;;;1.00;;
10295;SDS011;5193;51.032;6.356;2023-08-07T16:03:41;1.80;;;0.80;;
10295;SDS011;5193;51.032;6.356;2023-08-07T16:06:07;1.83;;;0.93;;
10295;SDS011;5193;51.032;6.356;2023-08-07T16:08:33;2.97;;;1.43;;
10295;SDS011;5193;51.032;6.356;2023-08-07T16:10:59;1.00;;;0.90;;
10295;SDS011;5193;51.032;6.356;2023-08-07T16:13:27;1.47;;;1.10;;
10295;SDS011;5193;51.032;6.356;2023-08-07T16:15:53;2.27;;;1.00;;
10295;SDS011;5193;51.032;6.356;2023-08-07T16:18:19;1.63;;;0.97;;
10295;SDS011;5193;51.032;6.356;2023-08-07T16:20:45;1.77;;;1.17;;
10295;SDS011;5193;51.032;6.356;2023-08-07T16:23:11;2.17;;;0.93;;
10295;SDS011;5193;51.032;6.356;2023-08-07T16:25:37;2.27;;;0.80;;
10295;SDS011;5193;51.032;6.356;2023-08-07T16:28:03;3.13;;;0.90;;
10295;SDS011;5193;51.032;6.356;2023-08-07T16:30:30;2.97;;;1.67;;
10295;SDS011;5193;51.032;6.356;2023-08-07T16:32:56;1.73;;;0.90;;
10295;SDS011;5193;51.032;6.356;2023-08-07T16:35:22;1.37;;;0.90;;
10295;SDS011;5193;51.032;6.356;2023-08-07T16:37:48;2.57;;;0.90;;
10295;SDS011;5193;51.032;6.356;2023-08-07T16:40:15;0.77;;;0.77;;
10295;SDS011;5193;51.032;6.356;2023-08-07T16:42:42;2.50;;;0.80;;
10295;SDS011;5193;51.032;6.356;2023-08-07T16:45:09;0.83;;;0.80;;
10295;SDS011;5193;51.032;6.356;2023-08-07T16:47:38;1.30;;;1.03;;
10295;SDS011;5193;51.032;6.356;2023-08-07T16:50:05;1.30;;;0.83;;
10295;SDS011;5193;51.032;6.356;2023-08-07T16:52:39;1.93;;;1.00;;
10295;SDS011;5193;51.032;6.356;2023-08-07T16:55:05;1.90;;;0.90;;
10295;SDS011;5193;51.032;6.356;2023-08-07T16:57:33;1.57;;;1.20;;
10295;SDS011;5193;51.032;6.356;2023-08-07T17:00:04;2.20;;;1.00;;
10295;SDS011;5193;51.032;6.356;2023-08-07T17:02:35;1.20;;;0.77;;
10295;SDS011;5193;51.032;6.356;2023-08-07T17:05:02;2.13;;;1.13;;
10295;SDS011;5193;51.032;6.356;2023-08-07T17:07:28;1.33;;;0.80;;
10295;SDS011;5193;51.032;6.356;2023-08-07T17:09:55;1.57;;;0.90;;
10295;SDS011;5193;51.032;6.356;2023-08-07T17:12:25;1.00;;;0.90;;
10295;SDS011;5193;51.032;6.356;2023-08-07T17:14:51;2.50;;;0.90;;
10295;SDS011;5193;51.032;6.356;2023-08-07T17:17:17;2.53;;;0.83;;
10295;SDS011;5193;51.032;6.356;2023-08-07T17:19:43;2.90;;;0.70;;
10295;SDS011;5193;51.032;6.356;2023-08-07T17:22:09;1.70;;;0.90;;
10295;SDS011;5193;51.032;6.356;2023-08-07T17:24:35;3.27;;;0.87;;
10295;SDS011;5193;51.032;6.356;2023-08-07T17:27:06;1.70;;;0.80;;
10295;SDS011;5193;51.032;6.356;2023-08-07T17:29:35;1.53;;;0.77;;
10295;SDS011;5193;51.032;6.356;2023-08-07T17:32:02;1.47;;;0.73;;
10295;SDS011;5193;51.032;6.356;2023-08-07T17:34:28;1.77;;;0.80;;
10295;SDS011;5193;51.032;6.356;2023-08-07T17:36:56;4.80;;;1.03;;
10295;SDS011;5193;51.032;6.356;2023-08-07T17:39:24;2.43;;;1.00;;
10295;SDS011;5193;51.032;6.356;2023-08-07T17:41:54;1.57;;;0.83;;
10295;SDS011;5193;51.032;6.356;2023-08-07T17:44:23;2.10;;;0.90;;
10295;SDS011;5193;51.032;6.356;2023-08-07T17:46:49;1.30;;;0.80;;
10295;SDS011;5193;51.032;6.356;2023-08-07T17:49:14;4.43;;;0.80;;
10295;SDS011;5193;51.032;6.356;2023-08-07T17:51:40;4.17;;;1.03;;
10295;SDS011;5193;51.032;6.356;2023-08-07T17:54:06;2.00;;;0.90;;
10295;SDS011;5193;51.032;6.356;2023-08-07T17:56:32;1.47;;;0.97;;
10295;SDS011;5193;51.032;6.356;2023-08-07T17:59:00;1.47;;;0.93;;
10295;SDS011;5193;51.032;6.356;2023-08-07T18:01:27;1.43;;;0.70;;
10295;SDS011;5193;51.032;6.356;2023-08-07T18:03:56;2.17;;;1.17;;
10295;SDS011;5193;51.032;6.356;2023-08-07T18:06:25;2.77;;;1.27;;
10295;SDS011;5193;51.032;6.356;2023-08-07T18:08:52;3.40;;;1.60;;
10295;SDS011;5193;51.032;6.356;2023-08-07T18:11:18;0.97;;;0.80;;
10295;SDS011;5193;51.032;6.356;2023-08-07T18:13:44;2.10;;;1.00;;
10295;SDS011;5193;51.032;6.356;2023-08-07T18:16:10;1.33;;;0.80;;
10295;SDS011;5193;51.032;6.356;2023-08-07T18:18:36;0.73;;;0.70;;
10295;SDS011;5193;51.032;6.356;2023-08-07T18:21:02;1.00;;;0.70;;
10295;SDS011;5193;51.032;6.356;2023-08-07T18:23:29;3.10;;;0.93;;
10295;SDS011;5193;51.032;6.356;2023-08-07T18:25:57;4.67;;;0.90;;
10295;SDS011;5193;51.032;6.356;2023-08-07T18:28:23;0.97;;;0.67;;
10295;SDS011;5193;51.032;6.356;2023-08-07T18:30:48;1.37;;;0.77;;
10295;SDS011;5193;51.032;6.356;2023-08-07T18:33:14;2.23;;;0.83;;
10295;SDS011;5193;51.032;6.356;2023-08-07T18:35:40;3.57;;;0.87;;
10295;SDS011;5193;51.032;6.356;2023-08-07T18:38:05;3.93;;;0.80;;
10295;SDS011;5193;51.032;6.356;2023-08-07T18:40:31;1.23;;;0.70;;
10295;SDS011;5193;51.032;6.356;2023-08-07T18:42:56;1.57;;;0.80;;
10295;SDS011;5193;51.032;6.356;2023-08-07T18:45:22;2.90;;;1.00;;
10295;SDS011;5193;51.032;6.356;2023-08-07T18:47:48;5.60;;;0.90;;
10295;SDS011;5193;51.032;6.356;2023-08-07T18:50:15;2.17;;;1.10;;
10295;SDS011;5193;51.032;6.356;2023-08-07T18:52:41;2.53;;;1.00;;
10295;SDS011;5193;51.032;6.356;2023-08-07T18:55:07;1.27;;;0.90;;
10295;SDS011;5193;51.032;6.356;2023-08-07T18:57:33;1.93;;;1.10;;
10295;SDS011;5193;51.032;6.356;2023-08-07T18:59:59;2.60;;;1.20;;
10295;SDS011;5193;51.032;6.356;2023-08-07T19:02:24;1.67;;;0.80;;
10295;SDS011;5193;51.032;6.356;2023-08-07T19:04:51;2.10;;;0.90;;
10295;SDS011;5193;51.032;6.356;2023-08-07T19:07:17;1.57;;;1.07;;
10295;SDS011;5193;51.032;6.356;2023-08-07T19:09:42;3.57;;;1.43;;
10295;SDS011;5193;51.032;6.356;2023-08-07T19:12:09;3.20;;;1.20;;
10295;SDS011;5193;51.032;6.356;2023-08-07T19:14:35;2.80;;;1.00;;
10295;SDS011;5193;51.032;6.356;2023-08-07T19:17:00;1.30;;;0.93;;
10295;SDS011;5193;51.032;6.356;2023-08-07T19:19:26;2.30;;;1.00;;
10295;SDS011;5193;51.032;6.356;2023-08-07T19:21:51;2.37;;;1.13;;
10295;SDS011;5193;51.032;6.356;2023-08-07T19:24:17;2.83;;;1.00;;
10295;SDS011;5193;51.032;6.356;2023-08-07T19:26:43;1.33;;;1.00;;
10295;SDS011;5193;51.032;6.356;2023-08-07T19:29:08;2.53;;;1.17;;
10295;SDS011;5193;51.032;6.356;2023-08-07T19:31:38;1.37;;;0.90;;
10295;SDS011;5193;51.032;6.356;2023-08-07T19:34:06;2.27;;;0.90;;
10295;SDS011;5193;51.032;6.356;2023-08-07T19:36:52;1.57;;;0.90;;
10295;SDS011;5193;51.032;6.356;2023-08-07T19:39:48;1.50;;;1.03;;
10295;SDS011;5193;51.032;6.356;2023-08-07T19:42:34;2.50;;;0.93;;
10295;SDS011;5193;51.032;6.356;2023-08-07T19:45:08;1.30;;;1.00;;
10295;SDS011;5193;51.032;6.356;2023-08-07T19:47:37;2.87;;;1.00;;
10295;SDS011;5193;51.032;6.356;2023-08-07T19:50:15;1.93;;;1.10;;
10295;SDS011;5193;51.032;6.356;2023-08-07T19:52:51;3.47;;;1.30;;
10295;SDS011;5193;51.032;6.356;2023-08-07T19:55:19;2.43;;;1.00;;
10295;SDS011;5193;51.032;6.356;2023-08-07T19:57:46;3.23;;;1.30;;
10295;SDS011;5193;51.032;6.356;2023-08-07T20:00:13;3.23;;;1.30;;
10295;SDS011;5193;51.032;6.356;2023-08-07T20:02:39;4.50;;;1.27;;
10295;SDS011;5193;51.032;6.356;2023-08-07T20:05:06;3.23;;;1.10;;
10295;SDS011;5193;51.032;6.356;2023-08-07T20:07:33;3.37;;;1.17;;
10295;SDS011;5193;51.032;6.356;2023-08-07T20:10:01;2.60;;;1.60;;
10295;SDS011;5193;51.032;6.356;2023-08-07T20:12:39;3.33;;;1.27;;
10295;SDS011;5193;51.032;6.356;2023-08-07T20:15:42;1.40;;;1.10;;
10295;SDS011;5193;51.032;6.356;2023-08-07T20:18:09;2.70;;;1.40;;
10295;SDS011;5193;51.032;6.356;2023-08-07T20:20:35;3.23;;;1.43;;
10295;SDS011;5193;51.032;6.356;2023-08-07T20:23:02;3.13;;;1.60;;
10295;SDS011;5193;51.032;6.356;2023-08-07T20:25:29;2.50;;;1.47;;
10295;SDS011;5193;51.032;6.356;2023-08-07T20:27:54;5.17;;;1.53;;
10295;SDS011;5193;51.032;6.356;2023-08-07T20:30:20;1.57;;;1.20;;
10295;SDS011;5193;51.032;6.356;2023-08-07T20:32:46;2.63;;;1.30;;
10295;SDS011;5193;51.032;6.356;2023-08-07T20:35:12;1.83;;;1.20;;
10295;SDS011;5193;51.032;6.356;2023-08-07T20:37:37;2.37;;;1.37;;
10295;SDS011;5193;51.032;6.356;2023-08-07T20:40:03;1.90;;;1.23;;
10295;SDS011;5193;51.032;6.356;2023-08-07T20:42:29;2.20;;;1.20;;
10295;SDS011;5193;51.032;6.356;2023-08-07T20:44:55;2.93;;;1.20;;
10295;SDS011;5193;51.032;6.356;2023-08-07T20:47:21;2.70;;;1.30;;
10295;SDS011;5193;51.032;6.356;2023-08-07T20:49:47;2.20;;;0.90;;
10295;SDS011;5193;51.032;6.356;2023-08-07T20:52:13;3.47;;;1.00;;
10295;SDS011;5193;51.032;6.356;2023-08-07T20:54:38;1.77;;;1.10;;
10295;SDS011;5193;51.032;6.356;2023-08-07T20:57:04;1.40;;;0.90;;
10295;SDS011;5193;51.032;6.356;2023-08-07T20:59:30;2.70;;;0.90;;
10295;SDS011;5193;51.032;6.356;2023-08-07T21:01:55;1.83;;;1.60;;
10295;SDS011;5193;51.032;6.356;2023-08-07T21:04:21;2.17;;;1.17;;
10295;SDS011;5193;51.032;6.356;2023-08-07T21:06:48;1.50;;;0.93;;
10295;SDS011;5193;51.032;6.356;2023-08-07T21:09:15;1.97;;;1.10;;
10295;SDS011;5193;51.032;6.356;2023-08-07T21:11:41;3.53;;;1.47;;
10295;SDS011;5193;51.032;6.356;2023-08-07T21:14:06;1.73;;;1.07;;
10295;SDS011;5193;51.032;6.356;2023-08-07T21:16:32;2.60;;;1.10;;
10295;SDS011;5193;51.032;6.356;2023-08-07T21:18:58;2.30;;;1.20;;
10295;SDS011;5193;51.032;6.356;2023-08-07T21:21:24;3.13;;;1.50;;
10295;SDS011;5193;51.032;6.356;2023-08-07T21:23:50;1.57;;;0.90;;
10295;SDS011;5193;51.032;6.356;2023-08-07T21:26:16;1.50;;;1.10;;
10295;SDS011;5193;51.032;6.356;2023-08-07T21:28:46;3.93;;;1.33;;
10295;SDS011;5193;51.032;6.356;2023-08-07T21:31:19;1.10;;;1.00;;
10295;SDS011;5193;51.032;6.356;2023-08-07T21:33:46;1.80;;;0.93;;
10295;SDS011;5193;51.032;6.356;2023-08-07T21:36:12;1.67;;;1.03;;
10295;SDS011;5193;51.032;6.356;2023-08-07T21:38:38;1.63;;;1.10;;
10295;SDS011;5193;51.032;6.356;2023-08-07T21:41:04;2.07;;;1.20;;
10295;SDS011;5193;51.032;6.356;2023-08-07T21:43:30;1.20;;;0.90;;
10295;SDS011;5193;51.032;6.356;2023-08-07T21:45:55;1.30;;;0.97;;
10295;SDS011;5193;51.032;6.356;2023-08-07T21:48:21;1.83;;;0.90;;
10295;SDS011;5193;51.032;6.356;2023-08-07T21:50:47;1.63;;;1.00;;
10295;SDS011;5193;51.032;6.356;2023-08-07T21:53:12;1.10;;;0.90;;
10295;SDS011;5193;51.032;6.356;2023-08-07T21:55:38;1.07;;;0.80;;
10295;SDS011;5193;51.032;6.356;2023-08-07T21:58:04;1.43;;;0.93;;
10295;SDS011;5193;51.032;6.356;2023-08-07T22:00:29;2.60;;;1.10;;
10295;SDS011;5193;51.032;6.356;2023-08-07T22:02:55;1.17;;;1.07;;
10295;SDS011;5193;51.032;6.356;2023-08-07T22:05:20;2.23;;;1.00;;
10295;SDS011;5193;51.032;6.356;2023-08-07T22:07:46;1.20;;;1.10;;
10295;SDS011;5193;51.032;6.356;2023-08-07T22:10:12;2.13;;;1.10;;
10295;SDS011;5193;51.032;6.356;2023-08-07T22:12:38;4.30;;;1.20;;
10295;SDS011;5193;51.032;6.356;2023-08-07T22:15:04;3.20;;;1.03;;
10295;SDS011;5193;51.032;6.356;2023-08-07T22:17:33;3.53;;;1.40;;
10295;SDS011;5193;51.032;6.356;2023-08-07T22:19:59;1.67;;;1.10;;
10295;SDS011;5193;51.032;6.356;2023-08-07T22:22:24;2.43;;;1.33;;
10295;SDS011;5193;51.032;6.356;2023-08-07T22:24:50;1.70;;;1.23;;
10295;SDS011;5193;51.032;6.356;2023-08-07T22:27:15;1.37;;;0.90;;
10295;SDS011;5193;51.032;6.356;2023-08-07T22:29:41;2.37;;;1.20;;
10295;SDS011;5193;51.032;6.356;2023-08-07T22:32:07;1.43;;;0.97;;
10295;SDS011;5193;51.032;6.356;2023-08-07T22:34:32;1.20;;;1.10;;
10295;SDS011;5193;51.032;6.356;2023-08-07T22:36:58;2.07;;;1.20;;
10295;SDS011;5193;51.032;6.356;2023-08-07T22:39:24;2.13;;;1.33;;
10295;SDS011;5193;51.032;6.356;2023-08-07T22:41:49;2.17;;;1.30;;
10295;SDS011;5193;51.032;6.356;2023-08-07T22:44:15;2.07;;;1.33;;
10295;SDS011;5193;51.032;6.356;2023-08-07T22:46:40;4.30;;;1.17;;
10295;SDS011;5193;51.032;6.356;2023-08-07T22:49:06;1.80;;;1.20;;
10295;SDS011;5193;51.032;6.356;2023-08-07T22:51:31;1.30;;;1.10;;
10295;SDS011;5193;51.032;6.356;2023-08-07T22:53:57;1.77;;;1.10;;
10295;SDS011;5193;51.032;6.356;2023-08-07T22:56:24;1.97;;;1.27;;
10295;SDS011;5193;51.032;6.356;2023-08-07T22:58:51;4.03;;;1.63;;
10295;SDS011;5193;51.032;6.356;2023-08-07T23:01:17;3.13;;;1.60;;
10295;SDS011;5193;51.032;6.356;2023-08-07T23:03:42;6.20;;;1.30;;
10295;SDS011;5193;51.032;6.356;2023-08-07T23:06:09;2.77;;;1.40;;
10295;SDS011;5193;51.032;6.356;2023-08-07T23:08:35;4.77;;;1.37;;
10295;SDS011;5193;51.032;6.356;2023-08-07T23:11:03;1.97;;;1.50;;
10295;SDS011;5193;51.032;6.356;2023-08-07T23:13:30;1.63;;;1.17;;
10295;SDS011;5193;51.032;6.356;2023-08-07T23:15:56;1.63;;;1.30;;
10295;SDS011;5193;51.032;6.356;2023-08-07T23:18:24;2.27;;;1.60;;
10295;SDS011;5193;51.032;6.356;2023-08-07T23:20:50;1.67;;;1.30;;
10295;SDS011;5193;51.032;6.356;2023-08-07T23:23:16;1.87;;;1.17;;
10295;SDS011;5193;51.032;6.356;2023-08-07T23:25:42;3.67;;;1.23;;
10295;SDS011;5193;51.032;6.356;2023-08-07T23:28:08;2.00;;;1.40;;
10295;SDS011;5193;51.032;6.356;2023-08-07T23:30:33;3.80;;;1.40;;
10295;SDS011;5193;51.032;6.356;2023-08-07T23:32:59;3.20;;;1.30;;
10295;SDS011;5193;51.032;6.356;2023-08-07T23:35:25;2.23;;;1.40;;
10295;SDS011;5193;51.032;6.356;2023-08-07T23:37:51;2.40;;;1.43;;
10295;SDS011;5193;51.032;6.356;2023-08-07T23:40:16;3.00;;;1.20;;
10295;SDS011;5193;51.032;6.356;2023-08-07T23:42:42;1.73;;;1.33;;
10295;SDS011;5193;51.032;6.356;2023-08-07T23:45:08;2.53;;;1.53;;
10295;SDS011;5193;51.032;6.356;2023-08-07T23:47:34;2.17;;;1.67;;
10295;SDS011;5193;51.032;6.356;2023-08-07T23:49:59;4.27;;;1.53;;
10295;SDS011;5193;51.032;6.356;2023-08-07T23:52:25;2.33;;;1.50;;
10295;SDS011;5193;51.032;6.356;2023-08-07T23:54:50;5.77;;;1.70;;
10295;SDS011;5193;51.032;6.356;2023-08-07T23:57:16;4.60;;;1.90;;
10295;SDS011;5193;51.032;6.356;2023-08-07T23:59:41;2.73;;;1.77;;
